createdAt,value
2019-02-19T00:01:53.394Z,4.40
2019-02-19T00:04:21.888Z,4.40
2019-02-19T00:06:50.338Z,4.40
2019-02-19T00:09:18.806Z,4.40
2019-02-19T00:11:47.343Z,4.40
2019-02-19T00:14:16.785Z,4.40
2019-02-19T00:16:45.243Z,4.30
2019-02-19T00:19:13.699Z,4.30
2019-02-19T00:21:42.171Z,4.30
2019-02-19T00:24:10.625Z,4.30
2019-02-19T00:26:39.076Z,4.20
2019-02-19T00:29:07.576Z,4.20
2019-02-19T00:31:36.101Z,4.20
2019-02-19T00:34:04.577Z,4.20
2019-02-19T00:36:33.049Z,4.20
2019-02-19T00:39:01.518Z,4.10
2019-02-19T00:41:30.004Z,4.10
2019-02-19T00:43:58.483Z,4.10
2019-02-19T00:46:27.023Z,4.10
2019-02-19T00:48:55.579Z,4.10
2019-02-19T00:51:24.044Z,4.00
2019-02-19T00:53:52.495Z,4.10
2019-02-19T00:56:21.158Z,4.00
2019-02-19T00:58:49.625Z,4.00
2019-02-19T01:01:18.160Z,4.00
2019-02-19T01:03:46.650Z,4.00
2019-02-19T01:06:15.111Z,3.90
2019-02-19T01:08:43.605Z,3.90
2019-02-19T01:11:12.126Z,3.90
2019-02-19T01:13:40.776Z,3.90
2019-02-19T01:16:10.660Z,3.90
2019-02-19T01:18:39.356Z,3.90
2019-02-19T01:21:07.921Z,3.80
2019-02-19T01:23:36.434Z,3.80
2019-02-19T01:26:04.895Z,3.80
2019-02-19T01:28:33.401Z,3.80
2019-02-19T01:31:01.858Z,3.80
2019-02-19T01:33:30.498Z,3.70
2019-02-19T01:35:59.152Z,3.70
2019-02-19T01:38:27.616Z,3.70
2019-02-19T01:40:56.073Z,3.70
2019-02-19T01:43:24.567Z,3.70
2019-02-19T01:45:53.031Z,3.60
2019-02-19T01:48:21.487Z,3.60
2019-02-19T01:50:49.987Z,3.50
2019-02-19T01:53:18.431Z,3.50
2019-02-19T01:55:46.893Z,3.50
2019-02-19T01:58:15.345Z,3.50
2019-02-19T02:00:43.811Z,3.50
2019-02-19T02:03:12.335Z,3.50
2019-02-19T02:05:40.799Z,3.50
2019-02-19T02:08:09.261Z,3.50
2019-02-19T02:10:37.759Z,3.50
2019-02-19T02:13:06.222Z,3.50
2019-02-19T02:15:42.305Z,3.50
2019-02-19T02:18:05.157Z,3.50
2019-02-19T02:20:33.613Z,3.50
2019-02-19T02:23:02.084Z,3.40
2019-02-19T02:25:30.537Z,3.40
2019-02-19T02:27:59.005Z,3.40
2019-02-19T02:30:27.476Z,3.40
2019-02-19T02:32:55.940Z,3.40
2019-02-19T02:35:24.419Z,3.40
2019-02-19T02:37:52.886Z,3.40
2019-02-19T02:40:21.372Z,3.40
2019-02-19T02:42:49.846Z,3.30
2019-02-19T02:45:18.504Z,3.30
2019-02-19T02:47:46.971Z,3.30
2019-02-19T02:50:15.433Z,3.30
2019-02-19T02:52:43.913Z,3.30
2019-02-19T02:55:12.443Z,3.20
2019-02-19T02:57:40.926Z,3.20
2019-02-19T03:00:11.466Z,3.20
2019-02-19T03:02:39.925Z,3.20
2019-02-19T03:05:08.667Z,3.20
2019-02-19T03:07:41.353Z,3.20
2019-02-19T03:10:09.960Z,3.10
2019-02-19T03:12:38.669Z,3.10
2019-02-19T03:15:08.262Z,3.10
2019-02-19T03:17:36.800Z,3.00
2019-02-19T03:20:06.986Z,3.00
2019-02-19T03:22:35.907Z,2.90
2019-02-19T03:25:05.199Z,2.90
2019-02-19T03:27:45.560Z,2.90
2019-02-19T03:30:14.019Z,2.90
2019-02-19T03:32:42.645Z,2.80
2019-02-19T03:35:11.235Z,2.80
2019-02-19T03:37:39.715Z,2.70
2019-02-19T03:40:08.450Z,2.70
2019-02-19T03:42:37.127Z,2.60
2019-02-19T03:45:08.521Z,2.60
2019-02-19T03:47:36.974Z,2.60
2019-02-19T03:50:06.179Z,2.50
2019-02-19T03:52:34.719Z,2.50
2019-02-19T03:55:03.200Z,2.40
2019-02-19T03:57:31.805Z,2.30
2019-02-19T04:00:00.350Z,2.30
2019-02-19T04:02:28.847Z,2.30
2019-02-19T04:04:57.384Z,2.30
2019-02-19T04:07:25.893Z,2.20
2019-02-19T04:09:54.408Z,2.20
2019-02-19T04:12:23.335Z,2.20
2019-02-19T04:14:51.998Z,2.20
2019-02-19T04:17:20.463Z,2.10
2019-02-19T04:19:48.986Z,2.10
2019-02-19T04:22:17.519Z,2.20
2019-02-19T04:24:46.020Z,2.20
2019-02-19T04:27:14.477Z,2.20
2019-02-19T04:29:43.011Z,2.10
2019-02-19T04:32:11.496Z,2.10
2019-02-19T04:34:40.028Z,2.20
2019-02-19T04:37:08.558Z,2.10
2019-02-19T04:39:37.057Z,2.10
2019-02-19T04:42:05.524Z,2.10
2019-02-19T04:44:33.993Z,2.10
2019-02-19T04:47:02.458Z,2.10
2019-02-19T04:49:30.906Z,2.10
2019-02-19T04:51:59.367Z,2.10
2019-02-19T04:54:27.946Z,2.10
2019-02-19T04:56:56.401Z,2.00
2019-02-19T04:59:24.866Z,2.00
2019-02-19T05:01:53.469Z,2.00
2019-02-19T05:04:22.071Z,2.00
2019-02-19T05:06:50.600Z,2.10
2019-02-19T05:09:19.092Z,2.10
2019-02-19T05:11:47.536Z,2.10
2019-02-19T05:14:15.998Z,2.10
2019-02-19T05:16:44.461Z,2.10
2019-02-19T05:19:12.909Z,2.20
2019-02-19T05:21:41.367Z,2.20
2019-02-19T05:24:09.827Z,2.20
2019-02-19T05:26:38.309Z,2.20
2019-02-19T05:29:06.763Z,2.20
2019-02-19T05:31:35.221Z,2.30
2019-02-19T05:34:03.699Z,2.30
2019-02-19T05:36:32.221Z,2.30
2019-02-19T05:39:00.770Z,2.30
2019-02-19T05:41:29.291Z,2.30
2019-02-19T05:43:57.753Z,2.30
2019-02-19T05:46:26.226Z,2.40
2019-02-19T05:48:54.703Z,2.40
2019-02-19T05:51:23.166Z,2.40
2019-02-19T05:53:51.650Z,2.50
2019-02-19T05:56:20.168Z,2.50
2019-02-19T05:58:48.685Z,2.50
2019-02-19T06:01:17.400Z,2.50
2019-02-19T06:03:45.918Z,2.50
2019-02-19T06:06:14.381Z,2.50
2019-02-19T06:08:42.931Z,2.50
2019-02-19T06:11:11.472Z,2.60
2019-02-19T06:13:40.001Z,2.60
2019-02-19T06:16:08.760Z,2.70
2019-02-19T06:18:37.337Z,2.80
2019-02-19T06:21:05.855Z,2.90
2019-02-19T06:23:34.391Z,3.00
2019-02-19T06:26:02.999Z,3.20
2019-02-19T06:28:31.575Z,3.30
2019-02-19T06:31:00.875Z,3.40
2019-02-19T06:33:38.895Z,3.50
2019-02-19T06:36:08.194Z,3.60
2019-02-19T06:38:36.656Z,3.70
2019-02-19T06:41:05.211Z,3.80
2019-02-19T06:43:33.675Z,4.00
2019-02-19T06:46:02.164Z,4.00
2019-02-19T06:48:30.712Z,4.20
2019-02-19T06:50:59.233Z,4.30
2019-02-19T06:53:27.678Z,4.40
2019-02-19T06:56:15.507Z,4.50
2019-02-19T06:58:43.968Z,4.60
2019-02-19T07:01:13.093Z,4.70
2019-02-19T07:03:45.894Z,4.80
2019-02-19T07:06:14.382Z,4.90
2019-02-19T07:08:42.833Z,5.00
2019-02-19T07:11:11.358Z,5.10
2019-02-19T07:13:39.866Z,5.10
2019-02-19T07:16:08.376Z,5.20
2019-02-19T07:18:36.876Z,5.20
2019-02-19T07:21:05.397Z,5.30
2019-02-19T07:23:33.861Z,5.40
2019-02-19T07:26:02.687Z,5.40
2019-02-19T07:28:31.193Z,5.40
2019-02-19T07:30:59.709Z,5.50
2019-02-19T07:33:28.847Z,5.50
2019-02-19T07:35:57.382Z,5.60
2019-02-19T07:38:25.863Z,5.60
2019-02-19T07:40:54.325Z,5.70
2019-02-19T07:43:22.776Z,5.70
2019-02-19T07:45:52.329Z,5.80
2019-02-19T07:48:20.979Z,5.90
2019-02-19T07:50:49.465Z,6.00
2019-02-19T07:53:17.933Z,6.10
2019-02-19T07:55:46.454Z,6.10
2019-02-19T07:58:14.936Z,6.20
2019-02-19T08:00:43.403Z,6.30
2019-02-19T08:03:11.867Z,6.40
2019-02-19T08:05:40.402Z,6.50
2019-02-19T08:08:08.867Z,6.60
2019-02-19T08:10:37.327Z,6.70
2019-02-19T08:13:05.828Z,6.80
2019-02-19T08:15:34.276Z,6.90
2019-02-19T08:18:03.589Z,7.00
2019-02-19T08:20:32.065Z,7.00
2019-02-19T08:23:00.578Z,7.10
2019-02-19T08:25:29.142Z,7.20
2019-02-19T08:27:57.675Z,7.20
2019-02-19T08:30:26.234Z,7.30
2019-02-19T08:32:54.681Z,7.40
2019-02-19T08:35:23.337Z,7.50
2019-02-19T08:37:51.906Z,7.50
2019-02-19T08:40:20.419Z,7.60
2019-02-19T08:42:48.993Z,7.70
2019-02-19T08:45:17.459Z,7.70
2019-02-19T08:47:45.994Z,7.80
2019-02-19T08:50:14.592Z,7.90
2019-02-19T08:52:43.047Z,8.00
2019-02-19T08:55:11.546Z,8.00
2019-02-19T08:57:40.001Z,8.10
2019-02-19T09:00:12.479Z,8.20
2019-02-19T09:02:44.116Z,8.20
2019-02-19T09:05:12.603Z,8.30
2019-02-19T09:07:41.178Z,8.50
2019-02-19T09:10:11.822Z,8.50
2019-02-19T09:12:40.291Z,8.60
2019-02-19T09:15:11.394Z,8.70
2019-02-19T09:17:40.121Z,8.80
2019-02-19T09:20:09.927Z,8.80
2019-02-19T09:22:38.405Z,8.90
2019-02-19T09:25:08.668Z,9.00
2019-02-19T09:27:37.252Z,9.10
2019-02-19T09:30:11.462Z,9.20
2019-02-19T09:32:39.969Z,9.30
2019-02-19T09:35:09.518Z,9.40
2019-02-19T09:37:38.100Z,9.50
2019-02-19T09:40:09.289Z,9.60
2019-02-19T09:42:37.792Z,9.70
2019-02-19T09:45:28.505Z,9.80
2019-02-19T09:48:01.188Z,9.80
2019-02-19T09:50:27.192Z,9.90
2019-02-19T09:52:59.947Z,10.00
2019-02-19T09:55:25.849Z,10.00
2019-02-19T09:57:54.382Z,10.10
2019-02-19T10:00:22.931Z,10.20
2019-02-19T10:02:51.503Z,10.30
2019-02-19T10:05:20.040Z,10.40
2019-02-19T10:07:48.503Z,10.40
2019-02-19T10:10:21.848Z,10.50
2019-02-19T10:12:50.437Z,10.60
2019-02-19T10:15:18.960Z,10.70
2019-02-19T10:17:47.476Z,10.80
2019-02-19T10:20:16.023Z,10.80
2019-02-19T10:22:44.496Z,10.90
2019-02-19T10:25:16.068Z,11.00
2019-02-19T10:27:44.550Z,11.00
2019-02-19T10:30:19.911Z,11.00
2019-02-19T10:32:48.446Z,11.00
2019-02-19T10:35:16.916Z,11.10
2019-02-19T10:37:45.422Z,11.10
2019-02-19T10:40:16.519Z,11.20
2019-02-19T10:42:45.029Z,11.20
2019-02-19T10:45:16.614Z,11.30
2019-02-19T10:47:45.099Z,11.30
2019-02-19T10:50:13.562Z,11.40
2019-02-19T10:52:42.097Z,11.50
2019-02-19T10:55:10.836Z,11.50
2019-02-19T10:57:39.339Z,11.60
2019-02-19T11:00:14.668Z,11.60
2019-02-19T11:02:43.203Z,11.70
2019-02-19T11:05:11.743Z,11.70
2019-02-19T11:07:40.274Z,11.70
2019-02-19T11:10:13.411Z,11.70
2019-02-19T11:12:42.086Z,11.80
2019-02-19T11:15:15.069Z,11.80
2019-02-19T11:17:43.547Z,11.80
2019-02-19T11:20:15.198Z,11.90
2019-02-19T11:22:43.659Z,12.00
2019-02-19T11:25:12.953Z,12.00
2019-02-19T11:27:41.440Z,12.10
2019-02-19T11:30:20.663Z,12.20
2019-02-19T11:32:49.431Z,12.20
2019-02-19T11:35:17.894Z,12.30
2019-02-19T11:37:46.466Z,12.40
2019-02-19T11:40:15.267Z,12.50
2019-02-19T11:42:43.726Z,12.60
2019-02-19T11:45:15.093Z,12.60
2019-02-19T11:47:43.588Z,12.70
2019-02-19T11:50:13.952Z,12.80
2019-02-19T11:52:42.407Z,12.80
2019-02-19T11:55:13.322Z,12.80
2019-02-19T11:57:41.855Z,12.90
2019-02-19T12:00:14.956Z,13.00
2019-02-19T12:02:43.413Z,13.10
2019-02-19T12:05:11.921Z,13.30
2019-02-19T12:07:40.393Z,13.70
2019-02-19T12:10:11.790Z,14.00
2019-02-19T12:12:40.517Z,14.40
2019-02-19T12:15:13.274Z,14.60
2019-02-19T12:17:41.808Z,14.90
2019-02-19T12:20:12.672Z,15.10
2019-02-19T12:22:41.321Z,15.30
2019-02-19T12:25:10.706Z,15.50
2019-02-19T12:27:39.441Z,15.60
2019-02-19T12:30:10.986Z,15.60
2019-02-19T12:32:39.587Z,15.70
2019-02-19T12:35:09.206Z,15.80
2019-02-19T12:37:37.741Z,15.90
2019-02-19T12:40:09.275Z,15.90
2019-02-19T12:42:37.742Z,16.00
2019-02-19T12:45:08.841Z,16.00
2019-02-19T12:47:37.584Z,16.00
2019-02-19T12:50:09.174Z,16.00
2019-02-19T12:52:37.722Z,16.00
2019-02-19T12:55:07.555Z,16.10
2019-02-19T12:57:36.876Z,16.00
2019-02-19T13:00:08.995Z,15.90
2019-02-19T13:02:37.526Z,15.80
2019-02-19T13:05:08.701Z,15.90
2019-02-19T13:07:37.180Z,15.90
2019-02-19T13:10:08.663Z,16.00
2019-02-19T13:12:37.248Z,16.00
2019-02-19T13:15:08.811Z,16.00
2019-02-19T13:17:37.277Z,15.90
2019-02-19T13:20:09.196Z,15.90
2019-02-19T13:22:37.714Z,15.90
2019-02-19T13:25:08.422Z,15.90
2019-02-19T13:27:36.955Z,15.90
2019-02-19T13:30:10.729Z,15.80
2019-02-19T13:32:39.187Z,15.80
2019-02-19T13:35:10.196Z,15.80
2019-02-19T13:37:38.753Z,15.80
2019-02-19T13:40:10.355Z,15.80
2019-02-19T13:42:38.997Z,15.90
2019-02-19T13:45:10.581Z,15.90
2019-02-19T13:47:39.033Z,15.90
2019-02-19T13:50:19.650Z,15.80
2019-02-19T13:52:52.467Z,15.90
2019-02-19T13:55:22.568Z,15.80
2019-02-19T13:57:51.035Z,15.80
2019-02-19T14:00:21.214Z,15.80
2019-02-19T14:02:49.777Z,15.80
2019-02-19T14:05:18.229Z,15.80
2019-02-19T14:07:46.691Z,15.80
2019-02-19T14:10:15.187Z,15.80
2019-02-19T14:12:43.634Z,15.80
2019-02-19T14:15:29.343Z,15.90
2019-02-19T14:17:58.137Z,15.80
2019-02-19T14:20:34.283Z,15.80
2019-02-19T14:23:16.303Z,15.70
2019-02-19T14:25:49.266Z,15.60
2019-02-19T14:28:22.511Z,15.50
2019-02-19T14:31:04.574Z,15.50
2019-02-19T14:33:34.749Z,15.50
2019-02-19T14:36:04.906Z,15.40
2019-02-19T14:38:49.974Z,15.30
2019-02-19T14:41:36.509Z,15.30
2019-02-19T14:44:09.371Z,15.30
2019-02-19T14:46:55.767Z,15.30
2019-02-19T14:49:34.185Z,15.20
2019-02-19T14:52:03.304Z,15.20
2019-02-19T14:54:39.383Z,15.10
2019-02-19T14:57:15.088Z,15.00
2019-02-19T14:59:45.197Z,14.90
2019-02-19T15:02:18.224Z,14.80
2019-02-19T15:04:54.238Z,14.70
2019-02-19T15:07:24.357Z,14.60
2019-02-19T15:09:54.598Z,14.50
2019-02-19T15:12:30.505Z,14.40
2019-02-19T15:15:00.627Z,14.20
2019-02-19T15:17:39.764Z,13.90
2019-02-19T15:20:22.269Z,13.80
2019-02-19T15:22:52.415Z,13.60
2019-02-19T15:25:22.516Z,13.40
2019-02-19T15:27:58.247Z,13.30
2019-02-19T15:30:46.529Z,13.20
2019-02-19T15:33:28.418Z,13.10
2019-02-19T15:35:58.527Z,12.90
2019-02-19T15:38:45.235Z,12.80
2019-02-19T15:41:18.026Z,12.60
2019-02-19T15:43:53.934Z,12.60
2019-02-19T15:46:26.888Z,12.50
2019-02-19T15:48:59.535Z,12.40
2019-02-19T15:51:41.577Z,12.30
2019-02-19T15:54:26.778Z,12.10
2019-02-19T15:56:57.010Z,12.00
2019-02-19T15:59:29.863Z,11.90
2019-02-19T16:02:00.046Z,11.80
2019-02-19T16:04:30.162Z,11.70
2019-02-19T16:07:00.327Z,11.60
2019-02-19T16:09:45.453Z,11.50
2019-02-19T16:12:15.633Z,11.50
2019-02-19T16:15:00.931Z,11.30
2019-02-19T16:17:46.268Z,11.30
2019-02-19T16:20:16.434Z,11.20
2019-02-19T16:23:02.788Z,11.10
2019-02-19T16:25:39.019Z,11.10
2019-02-19T16:28:11.727Z,11.00
2019-02-19T16:30:44.563Z,11.00
2019-02-19T16:33:14.981Z,11.00
2019-02-19T16:35:59.938Z,10.90
2019-02-19T16:38:32.674Z,10.90
2019-02-19T16:41:08.738Z,10.90
2019-02-19T16:43:44.579Z,10.90
2019-02-19T16:46:23.500Z,10.90
2019-02-19T16:48:56.369Z,10.90
2019-02-19T16:51:32.265Z,10.80
2019-02-19T16:54:18.490Z,10.80
2019-02-19T16:57:03.681Z,10.80
2019-02-19T16:59:33.822Z,10.70
2019-02-19T17:02:12.945Z,10.70
2019-02-19T17:04:54.989Z,10.70
2019-02-19T17:07:27.545Z,10.60
2019-02-19T17:10:13.797Z,10.50
2019-02-19T17:12:50.112Z,10.50
2019-02-19T17:15:36.460Z,10.40
2019-02-19T17:18:12.211Z,10.40
2019-02-19T17:20:51.040Z,10.30
2019-02-19T17:23:27.002Z,10.30
2019-02-19T17:25:57.118Z,10.30
2019-02-19T17:28:44.206Z,10.30
2019-02-19T17:31:31.322Z,10.30
2019-02-19T17:34:04.385Z,10.30
2019-02-19T17:36:50.865Z,10.30
2019-02-19T17:39:20.954Z,10.30
2019-02-19T17:41:51.066Z,10.30
2019-02-19T17:44:21.168Z,10.30
2019-02-19T17:46:57.190Z,10.40
2019-02-19T17:49:27.613Z,10.40
2019-02-19T17:52:14.381Z,10.40
2019-02-19T17:55:01.057Z,10.40
2019-02-19T17:57:31.283Z,10.40
2019-02-19T18:00:01.512Z,10.50
2019-02-19T18:02:31.691Z,10.50
2019-02-19T18:05:07.646Z,10.50
2019-02-19T18:07:37.761Z,10.50
2019-02-19T18:10:12.672Z,10.50
2019-02-19T18:12:51.752Z,10.50
2019-02-19T18:15:24.681Z,10.50
2019-02-19T18:17:57.742Z,10.50
2019-02-19T18:20:26.200Z,10.40
2019-02-19T18:22:54.654Z,10.30
2019-02-19T18:25:23.132Z,10.20
2019-02-19T18:27:51.686Z,10.10
2019-02-19T18:30:20.239Z,9.90
2019-02-19T18:32:48.777Z,9.70
2019-02-19T18:35:17.250Z,9.60
2019-02-19T18:37:45.720Z,9.40
2019-02-19T18:40:14.267Z,9.30
2019-02-19T18:42:42.726Z,9.20
2019-02-19T18:45:11.272Z,9.20
2019-02-19T18:47:39.766Z,9.10
2019-02-19T18:50:09.553Z,9.10
2019-02-19T18:52:38.043Z,9.00
2019-02-19T18:55:12.539Z,8.90
2019-02-19T18:57:41.007Z,8.90
2019-02-19T19:00:12.263Z,8.80
2019-02-19T19:02:40.796Z,8.80
2019-02-19T19:05:09.710Z,8.70
2019-02-19T19:07:38.172Z,8.60
2019-02-19T19:10:09.836Z,8.60
2019-02-19T19:12:38.461Z,8.60
2019-02-19T19:15:09.271Z,8.50
2019-02-19T19:17:37.762Z,8.40
2019-02-19T19:20:09.440Z,8.40
2019-02-19T19:22:37.973Z,8.30
2019-02-19T19:25:07.510Z,8.30
2019-02-19T19:27:36.032Z,8.30
2019-02-19T19:30:10.449Z,8.30
2019-02-19T19:32:38.970Z,8.20
2019-02-19T19:35:09.841Z,8.20
2019-02-19T19:37:38.378Z,8.20
2019-02-19T19:40:09.738Z,8.20
2019-02-19T19:42:38.238Z,8.20
2019-02-19T19:45:10.394Z,8.10
2019-02-19T19:47:38.848Z,8.10
2019-02-19T19:50:11.563Z,8.10
2019-02-19T19:52:40.351Z,8.10
2019-02-19T19:55:10.115Z,8.10
2019-02-19T19:57:38.795Z,8.10
2019-02-19T20:00:12.586Z,8.10
2019-02-19T20:02:41.128Z,8.10
2019-02-19T20:05:10.523Z,8.10
2019-02-19T20:07:39.023Z,8.10
2019-02-19T20:10:15.240Z,8.10
2019-02-19T20:12:43.968Z,8.10
2019-02-19T20:15:13.044Z,8.10
2019-02-19T20:17:41.499Z,8.10
2019-02-19T20:20:13.441Z,8.20
2019-02-19T20:22:42.008Z,8.20
2019-02-19T20:25:14.425Z,8.20
2019-02-19T20:27:42.903Z,8.20
2019-02-19T20:30:14.003Z,8.20
2019-02-19T20:32:42.463Z,8.30
2019-02-19T20:35:11.464Z,8.30
2019-02-19T20:37:39.998Z,8.30
2019-02-19T20:40:10.319Z,8.30
2019-02-19T20:42:38.832Z,8.30
2019-02-19T20:45:12.225Z,8.30
2019-02-19T20:47:40.749Z,8.30
2019-02-19T20:50:11.798Z,8.30
2019-02-19T20:52:40.337Z,8.20
2019-02-19T20:55:11.002Z,8.20
2019-02-19T20:57:39.554Z,8.20
2019-02-19T21:00:11.737Z,8.20
2019-02-19T21:02:40.199Z,8.20
2019-02-19T21:05:10.503Z,8.20
2019-02-19T21:07:38.990Z,8.20
2019-02-19T21:10:10.522Z,8.10
2019-02-19T21:12:39.090Z,8.10
2019-02-19T21:15:07.622Z,8.10
2019-02-19T21:17:36.163Z,8.00
2019-02-19T21:20:07.407Z,8.00
2019-02-19T21:22:36.203Z,8.00
2019-02-19T21:25:07.100Z,8.00
2019-02-19T21:27:35.653Z,7.90
2019-02-19T21:30:09.286Z,7.90
2019-02-19T21:32:37.750Z,7.80
2019-02-19T21:35:07.357Z,7.70
2019-02-19T21:37:35.879Z,7.70
2019-02-19T21:40:07.205Z,7.70
2019-02-19T21:42:35.789Z,7.60
2019-02-19T21:45:09.960Z,7.50
2019-02-19T21:47:38.537Z,7.50
2019-02-19T21:50:09.297Z,7.40
2019-02-19T21:52:46.882Z,7.40
2019-02-19T21:55:15.475Z,7.30
2019-02-19T21:57:43.964Z,7.30
2019-02-19T22:00:16.200Z,7.20
2019-02-19T22:02:44.886Z,7.20
2019-02-19T22:05:13.358Z,7.10
2019-02-19T22:07:41.883Z,7.10
2019-02-19T22:10:12.690Z,7.10
2019-02-19T22:12:41.171Z,7.10
2019-02-19T22:15:11.939Z,7.10
2019-02-19T22:17:40.853Z,7.10
2019-02-19T22:20:14.333Z,7.10
2019-02-19T22:22:42.852Z,7.10
2019-02-19T22:25:11.396Z,7.10
2019-02-19T22:27:39.867Z,7.10
2019-02-19T22:30:09.594Z,7.10
2019-02-19T22:32:38.038Z,7.10
2019-02-19T22:35:07.265Z,7.10
2019-02-19T22:37:35.722Z,7.10
2019-02-19T22:40:06.691Z,7.10
2019-02-19T22:42:35.162Z,7.20
2019-02-19T22:45:04.524Z,7.20
2019-02-19T22:47:33.157Z,7.20
2019-02-19T22:50:01.627Z,7.30
2019-02-19T22:52:30.414Z,7.30
2019-02-19T22:55:00.517Z,7.40
2019-02-19T22:57:29.032Z,7.40
2019-02-19T22:59:57.528Z,7.40
2019-02-19T23:02:26.295Z,7.40
2019-02-19T23:04:54.859Z,7.40
2019-02-19T23:07:23.309Z,7.50
2019-02-19T23:09:51.853Z,7.50
2019-02-19T23:12:20.338Z,7.50
2019-02-19T23:14:48.803Z,7.60
2019-02-19T23:17:17.297Z,7.60
2019-02-19T23:19:45.833Z,7.60
2019-02-19T23:22:21.304Z,7.60
2019-02-19T23:24:44.486Z,7.60
2019-02-19T23:27:12.972Z,7.60
2019-02-19T23:29:41.489Z,7.60
2019-02-19T23:32:09.936Z,7.60
2019-02-19T23:34:38.435Z,7.60
2019-02-19T23:37:06.922Z,7.60
2019-02-19T23:39:43.465Z,7.60
2019-02-19T23:42:05.575Z,7.60
2019-02-19T23:44:34.020Z,7.60
2019-02-19T23:47:02.484Z,7.60
2019-02-19T23:49:30.979Z,7.60
2019-02-19T23:51:59.428Z,7.60
2019-02-19T23:54:28.303Z,7.60
2019-02-19T23:56:56.820Z,7.60
2019-02-19T23:59:25.318Z,7.60
